Time;durP1;ratioP1;P1;durP2;ratioP2;P2;SDS_P1;SDS_P2;PMS_P1;PMS_P2;Temp;Humidity;BMP_temperature;BMP_pressure;BME280_temperature;BME280_humidity;BME280_pressure;Samples;Min_cycle;Max_cycle;Signal;HPM_P1;HPM_P2
2023/08/06 00:01:31;;;;;;;1.60;1.20;;;16.80;98.20;;;;;;5014091;28;20534;-83
2023/08/06 00:04:00;;;;;;;1.50;0.90;;;16.80;98.20;;;;;;5029030;28;20575;-83
2023/08/06 00:06:28;;;;;;;1.50;0.90;;;16.80;98.20;;;;;;5020408;28;20486;-84
2023/08/06 00:08:55;;;;;;;1.50;0.90;;;16.80;98.20;;;;;;5028266;28;20669;-84
2023/08/06 00:11:22;;;;;;;1.50;0.90;;;16.70;98.20;;;;;;5013479;28;20476;-84
2023/08/06 00:13:48;;;;;;;1.50;1.00;;;16.70;98.20;;;;;;5028824;28;20944;-83
2023/08/06 00:16:15;;;;;;;1.50;1.00;;;16.70;98.20;;;;;;5017606;28;20563;-84
2023/08/06 00:18:43;;;;;;;1.50;0.90;;;16.60;98.20;;;;;;5027220;28;20483;-84
2023/08/06 00:21:12;;;;;;;1.53;1.10;;;16.60;98.20;;;;;;5018060;28;20483;-83
2023/08/06 00:23:39;;;;;;;1.53;1.00;;;16.50;98.20;;;;;;5026036;28;20491;-82
2023/08/06 00:26:06;;;;;;;1.53;0.97;;;16.50;98.20;;;;;;5019546;28;21414;-83
2023/08/06 00:28:33;;;;;;;1.53;0.90;;;16.50;98.20;;;;;;5036151;28;20467;-83
2023/08/06 00:31:03;;;;;;;1.50;0.97;;;16.40;98.20;;;;;;5014916;28;20930;-84
2023/08/06 00:33:30;;;;;;;1.50;1.00;;;16.40;98.20;;;;;;5027292;28;20590;-83
2023/08/06 00:36:03;;;;;;;1.90;1.20;;;16.40;98.20;;;;;;5017721;28;20522;-84
2023/08/06 00:38:32;;;;;;;1.50;0.90;;;16.40;98.20;;;;;;5021491;28;20506;-83
2023/08/06 00:40:58;;;;;;;1.60;1.00;;;16.30;98.20;;;;;;5019064;28;20463;-83
2023/08/06 00:43:25;;;;;;;1.57;1.00;;;16.30;98.20;;;;;;5027601;28;20493;-81
2023/08/06 00:45:52;;;;;;;1.60;1.10;;;16.30;98.20;;;;;;5015281;28;20498;-83
2023/08/06 00:48:20;;;;;;;1.50;1.00;;;16.30;98.20;;;;;;5026524;28;20455;-81
2023/08/06 00:50:47;;;;;;;1.50;1.00;;;16.30;98.20;;;;;;5026096;28;20490;-82
2023/08/06 00:53:15;;;;;;;1.50;0.90;;;16.30;98.20;;;;;;5014909;28;20562;-82
2023/08/06 00:55:48;;;;;;;1.60;1.20;;;16.40;98.20;;;;;;5025800;28;20460;-83
2023/08/06 00:58:16;;;;;;;1.50;0.90;;;16.40;98.20;;;;;;4996718;28;20490;-83
2023/08/06 01:00:43;;;;;;;1.50;0.90;;;16.50;98.20;;;;;;5020358;28;20636;-82
2023/08/06 01:03:10;;;;;;;1.53;1.00;;;16.50;98.20;;;;;;4998577;28;21033;-84
2023/08/06 01:05:37;;;;;;;1.50;1.00;;;16.50;98.20;;;;;;5033306;28;20499;-84
2023/08/06 01:08:14;;;;;;;1.50;0.90;;;16.50;98.20;;;;;;5022864;28;20479;-83
2023/08/06 01:10:56;;;;;;;1.50;1.00;;;16.60;98.20;;;;;;5030717;28;20462;-83
2023/08/06 01:13:32;;;;;;;1.50;1.00;;;16.60;98.20;;;;;;4996465;28;20537;-83
2023/08/06 01:16:01;;;;;;;1.50;0.90;;;16.60;98.20;;;;;;5020204;28;20458;-83
2023/08/06 01:18:28;;;;;;;1.50;0.93;;;16.60;98.20;;;;;;5030754;28;20493;-83
2023/08/06 01:20:57;;;;;;;1.50;0.90;;;16.60;98.20;;;;;;5019239;28;20468;-84
2023/08/06 01:23:25;;;;;;;1.50;0.90;;;16.50;98.20;;;;;;5022592;28;20484;-83
2023/08/06 01:26:18;;;;;;;1.53;0.93;;;16.50;98.20;;;;;;5021440;28;20467;-83
2023/08/06 01:28:56;;;;;;;1.50;0.90;;;16.50;98.20;;;;;;5016791;28;20487;-81
2023/08/06 01:31:26;;;;;;;1.50;1.00;;;16.60;98.20;;;;;;5020517;28;20474;-83
2023/08/06 01:33:55;;;;;;;1.50;0.90;;;16.60;98.20;;;;;;5029591;28;20479;-83
2023/08/06 01:36:24;;;;;;;1.50;0.90;;;16.60;98.20;;;;;;5017866;28;20472;-83
2023/08/06 01:38:53;;;;;;;1.53;1.10;;;16.60;98.20;;;;;;5027876;28;20490;-83
2023/08/06 01:41:20;;;;;;;1.50;0.90;;;16.60;98.20;;;;;;5017572;28;20547;-82
2023/08/06 01:43:53;;;;;;;1.50;0.90;;;16.60;98.20;;;;;;5020199;28;20488;-83
2023/08/06 01:46:20;;;;;;;1.57;1.10;;;16.60;98.20;;;;;;5024242;28;20547;-82
2023/08/06 01:48:47;;;;;;;1.50;0.93;;;16.60;98.20;;;;;;5030567;28;20557;-82
2023/08/06 01:51:14;;;;;;;1.50;0.90;;;16.60;98.20;;;;;;5023463;28;20503;-83
2023/08/06 01:53:42;;;;;;;1.50;0.90;;;16.60;98.20;;;;;;5030112;28;20507;-83
2023/08/06 01:56:09;;;;;;;1.50;1.00;;;16.60;98.20;;;;;;5023075;28;20498;-83
2023/08/06 01:58:37;;;;;;;1.50;0.90;;;16.60;98.20;;;;;;5032446;28;20586;-83
2023/08/06 02:01:04;;;;;;;1.50;1.00;;;16.60;98.20;;;;;;5021220;28;20466;-84
2023/08/06 02:03:30;;;;;;;1.50;0.97;;;16.60;98.20;;;;;;5023384;28;20483;-84
2023/08/06 02:05:58;;;;;;;1.50;0.90;;;16.60;98.20;;;;;;5021358;28;20494;-83
2023/08/06 02:08:25;;;;;;;1.50;1.00;;;16.60;98.20;;;;;;5032286;28;20517;-83
2023/08/06 02:10:53;;;;;;;1.50;1.00;;;16.60;98.20;;;;;;5021886;28;20550;-84
2023/08/06 02:13:20;;;;;;;1.50;1.00;;;16.60;98.20;;;;;;5024788;28;20549;-83
2023/08/06 02:15:48;;;;;;;1.57;1.00;;;16.60;98.20;;;;;;5029829;28;20498;-83
2023/08/06 02:18:15;;;;;;;1.53;1.00;;;16.60;98.20;;;;;;5029129;28;20495;-83
2023/08/06 02:20:42;;;;;;;1.50;0.90;;;16.50;98.20;;;;;;5030827;28;20537;-83
2023/08/06 02:23:09;;;;;;;1.50;0.90;;;16.50;98.20;;;;;;5017059;28;20556;-81
2023/08/06 02:25:36;;;;;;;1.53;0.90;;;16.50;98.20;;;;;;5032629;28;20843;-82
2023/08/06 02:28:05;;;;;;;1.50;0.90;;;16.40;98.20;;;;;;5018290;28;20557;-83
2023/08/06 02:30:32;;;;;;;1.50;0.93;;;16.40;98.20;;;;;;5030891;28;20462;-83
2023/08/06 02:32:59;;;;;;;1.50;1.00;;;16.40;98.20;;;;;;5020550;28;20543;-83
2023/08/06 02:38:57;;;;;;;1.50;1.00;;;16.30;98.20;;;;;;4991286;28;20512;-84
2023/08/06 02:41:24;;;;;;;1.53;1.03;;;16.30;98.20;;;;;;5022113;28;20475;-83
2023/08/06 02:43:53;;;;;;;1.50;1.00;;;16.30;98.20;;;;;;5030193;28;20498;-82
2023/08/06 02:46:20;;;;;;;1.50;0.90;;;16.30;98.20;;;;;;5015413;28;20471;-83
2023/08/06 02:48:47;;;;;;;1.50;1.00;;;16.30;98.20;;;;;;5030398;28;20471;-82
2023/08/06 02:51:14;;;;;;;1.57;0.90;;;16.20;98.20;;;;;;5015042;28;20563;-83
2023/08/06 02:53:41;;;;;;;1.53;0.97;;;16.20;98.20;;;;;;5030590;28;20578;-83
2023/08/06 02:56:08;;;;;;;1.50;1.00;;;16.20;98.20;;;;;;5022567;28;20464;-83
2023/08/06 02:58:35;;;;;;;1.50;1.00;;;16.20;98.20;;;;;;5034627;28;20463;-83
2023/08/06 03:01:05;;;;;;;1.60;1.00;;;16.20;98.20;;;;;;5015546;28;20494;-83
2023/08/06 03:03:32;;;;;;;1.53;0.90;;;16.20;98.20;;;;;;5024278;28;20671;-83
2023/08/06 03:05:59;;;;;;;1.50;1.00;;;16.20;98.20;;;;;;5022911;28;20966;-83
2023/08/06 03:08:26;;;;;;;1.50;1.00;;;16.20;98.20;;;;;;5034104;28;20463;-85
2023/08/06 03:10:53;;;;;;;1.50;0.90;;;16.20;98.20;;;;;;5025134;28;20492;-83
2023/08/06 03:13:20;;;;;;;1.57;1.00;;;16.20;98.20;;;;;;5028836;28;20510;-83
2023/08/06 03:15:54;;;;;;;1.50;1.00;;;16.20;98.20;;;;;;5032021;28;20524;-82
2023/08/06 03:18:22;;;;;;;1.50;0.90;;;16.20;98.20;;;;;;5028583;28;20471;-82
2023/08/06 03:20:53;;;;;;;1.50;0.90;;;16.20;98.20;;;;;;5020522;28;20521;-83
2023/08/06 03:23:24;;;;;;;1.50;1.00;;;16.20;98.20;;;;;;5031046;28;20483;-83
2023/08/06 03:25:51;;;;;;;1.50;0.90;;;16.20;98.20;;;;;;5019976;28;20869;-82
2023/08/06 03:28:18;;;;;;;1.50;0.93;;;16.20;98.20;;;;;;5023530;28;20470;-83
2023/08/06 03:30:45;;;;;;;1.50;1.00;;;16.20;98.20;;;;;;5029376;28;20452;-82
2023/08/06 03:33:12;;;;;;;1.50;0.90;;;16.20;98.20;;;;;;5017007;28;21038;-83
2023/08/06 03:38:56;;;;;;;1.53;1.00;;;16.20;98.20;;;;;;4969046;28;20958;-83
2023/08/06 03:41:23;;;;;;;1.50;0.90;;;16.20;98.20;;;;;;5017749;28;20487;-82
2023/08/06 03:43:50;;;;;;;1.50;0.90;;;16.20;98.20;;;;;;5028423;28;20491;-82
2023/08/06 03:46:17;;;;;;;1.50;0.90;;;16.20;98.20;;;;;;5020154;28;20481;-82
2023/08/06 03:48:44;;;;;;;1.50;0.90;;;16.20;98.20;;;;;;5029488;28;20911;-82
2023/08/06 03:51:11;;;;;;;1.50;0.90;;;16.20;98.20;;;;;;5018741;28;20471;-82
2023/08/06 03:53:38;;;;;;;1.50;1.00;;;16.20;98.20;;;;;;5026929;28;20478;-84
2023/08/06 03:56:06;;;;;;;1.53;0.97;;;16.20;98.20;;;;;;5017415;28;20491;-82
2023/08/06 03:58:33;;;;;;;1.50;0.90;;;16.20;98.20;;;;;;5024911;28;20542;-82
2023/08/06 04:01:00;;;;;;;1.50;1.00;;;16.20;98.20;;;;;;5015747;28;20487;-82
2023/08/06 04:03:27;;;;;;;1.50;0.90;;;16.30;98.20;;;;;;5029271;28;20497;-82
2023/08/06 04:05:55;;;;;;;1.53;1.00;;;16.20;98.20;;;;;;5019117;28;20463;-83
2023/08/06 04:08:22;;;;;;;1.53;1.00;;;16.20;98.20;;;;;;5027448;28;20464;-82
2023/08/06 04:10:50;;;;;;;1.50;0.90;;;16.20;98.20;;;;;;5018741;28;20463;-81
2023/08/06 04:13:18;;;;;;;1.50;0.97;;;16.20;98.20;;;;;;5025725;28;20485;-82
2023/08/06 04:15:45;;;;;;;1.50;0.90;;;16.20;98.20;;;;;;5028945;28;20467;-82
2023/08/06 04:18:12;;;;;;;1.50;0.97;;;16.20;98.20;;;;;;4999347;28;21024;-82
2023/08/06 04:20:44;;;;;;;1.50;1.00;;;16.30;98.20;;;;;;5028811;28;20514;-83
2023/08/06 04:23:11;;;;;;;1.60;1.27;;;16.20;98.20;;;;;;4999914;28;21015;-82
2023/08/06 04:25:38;;;;;;;1.50;0.90;;;16.20;98.20;;;;;;5024828;28;20456;-81
2023/08/06 04:28:05;;;;;;;1.50;1.00;;;16.30;98.20;;;;;;5009927;28;20805;-81
2023/08/06 04:30:33;;;;;;;1.50;0.90;;;16.30;98.20;;;;;;5023608;28;21179;-81
2023/08/06 04:33:00;;;;;;;1.50;0.90;;;16.30;98.20;;;;;;5013994;28;20698;-81
2023/08/06 04:35:27;;;;;;;1.50;1.00;;;16.30;98.20;;;;;;5029147;28;20550;-81
2023/08/06 04:37:54;;;;;;;1.50;0.90;;;16.30;98.20;;;;;;5016243;28;20486;-81
2023/08/06 04:40:21;;;;;;;1.50;0.90;;;16.20;98.20;;;;;;5026497;28;20493;-80
2023/08/06 04:42:47;;;;;;;1.50;1.00;;;16.20;98.20;;;;;;5010827;28;21016;-80
2023/08/06 04:45:14;;;;;;;1.50;0.90;;;16.20;98.20;;;;;;5027785;28;20471;-79
2023/08/06 04:47:42;;;;;;;1.50;1.00;;;16.30;98.20;;;;;;5021813;28;20483;-79
2023/08/06 04:50:09;;;;;;;1.53;0.93;;;16.30;98.20;;;;;;5029845;28;20470;-80
2023/08/06 04:52:36;;;;;;;1.50;1.00;;;16.20;98.20;;;;;;5017457;28;21066;-81
2023/08/06 04:55:03;;;;;;;1.50;1.00;;;16.30;98.20;;;;;;5025723;28;20962;-82
2023/08/06 04:57:30;;;;;;;1.50;0.90;;;16.30;98.20;;;;;;5017551;28;20936;-81
2023/08/06 04:59:57;;;;;;;1.50;0.90;;;16.30;98.20;;;;;;5028466;28;20495;-81
2023/08/06 05:02:23;;;;;;;1.53;0.90;;;16.30;98.20;;;;;;5018489;28;20681;-81
2023/08/06 05:04:52;;;;;;;1.50;1.00;;;16.30;98.20;;;;;;5027554;28;20479;-82
2023/08/06 05:07:18;;;;;;;1.50;1.00;;;16.20;98.20;;;;;;5016649;28;21993;-82
2023/08/06 05:09:45;;;;;;;1.50;0.90;;;16.20;98.20;;;;;;5027263;28;20447;-82
2023/08/06 05:12:12;;;;;;;1.50;0.90;;;16.20;98.20;;;;;;5013130;28;20871;-82
2023/08/06 05:14:39;;;;;;;1.57;0.90;;;16.10;98.20;;;;;;5027673;28;20483;-81
2023/08/06 05:17:06;;;;;;;1.50;0.90;;;16.10;98.20;;;;;;5017231;28;20467;-82
2023/08/06 05:19:33;;;;;;;1.50;0.97;;;16.10;98.20;;;;;;5030997;28;20924;-82
2023/08/06 05:22:02;;;;;;;1.50;0.90;;;16.10;98.20;;;;;;5017661;28;20525;-82
2023/08/06 05:24:28;;;;;;;1.50;1.07;;;16.10;98.20;;;;;;5028230;28;20510;-82
2023/08/06 05:26:55;;;;;;;1.50;1.00;;;16.10;98.20;;;;;;5018972;28;20487;-83
2023/08/06 05:29:22;;;;;;;1.50;1.00;;;16.10;98.20;;;;;;5031321;28;20474;-82
2023/08/06 05:31:49;;;;;;;1.50;0.90;;;16.10;98.20;;;;;;5014043;28;20488;-84
2023/08/06 05:34:28;;;;;;;1.90;1.37;;;16.10;98.20;;;;;;5031297;28;20479;-83
2023/08/06 05:36:55;;;;;;;1.50;0.90;;;16.10;98.20;;;;;;5019919;28;20483;-82
2023/08/06 05:39:23;;;;;;;1.50;0.90;;;16.10;98.20;;;;;;5032105;28;20479;-82
2023/08/06 05:41:50;;;;;;;1.50;0.97;;;16.10;98.20;;;;;;5021168;28;20490;-83
2023/08/06 05:44:17;;;;;;;1.50;0.90;;;16.10;98.20;;;;;;5028346;28;20578;-82
2023/08/06 05:46:44;;;;;;;1.50;0.90;;;16.10;98.20;;;;;;5020473;28;20494;-83
2023/08/06 05:49:16;;;;;;;1.53;0.90;;;16.20;98.20;;;;;;5029765;28;20514;-83
2023/08/06 05:51:44;;;;;;;1.53;1.00;;;16.30;98.20;;;;;;5023230;28;20507;-85
2023/08/06 05:54:10;;;;;;;1.50;0.90;;;16.30;98.20;;;;;;5033270;28;20866;-84
2023/08/06 05:56:39;;;;;;;1.50;1.00;;;16.30;98.20;;;;;;5018653;28;20485;-84
2023/08/06 05:59:05;;;;;;;1.50;1.00;;;16.40;98.20;;;;;;5030855;28;20594;-84
2023/08/06 06:01:32;;;;;;;1.50;1.00;;;16.40;98.20;;;;;;5022694;28;20558;-84
2023/08/06 06:03:59;;;;;;;1.50;1.00;;;16.40;98.20;;;;;;5029951;28;20490;-84
2023/08/06 06:06:26;;;;;;;1.57;0.90;;;16.50;98.20;;;;;;5019611;28;20530;-84
2023/08/06 06:08:55;;;;;;;1.50;0.90;;;16.50;98.20;;;;;;5028211;28;20574;-84
2023/08/06 06:11:22;;;;;;;1.50;0.90;;;16.50;98.20;;;;;;5016665;28;20546;-84
2023/08/06 06:13:51;;;;;;;1.50;0.90;;;16.60;98.20;;;;;;5027576;28;20475;-84
2023/08/06 06:16:18;;;;;;;1.50;0.90;;;16.60;98.20;;;;;;5020241;28;20571;-85
2023/08/06 06:18:45;;;;;;;1.50;0.97;;;16.60;98.20;;;;;;5036079;28;20472;-85
2023/08/06 06:21:12;;;;;;;1.50;0.90;;;16.70;98.20;;;;;;5023118;28;20484;-85
2023/08/06 06:23:39;;;;;;;1.50;0.90;;;16.70;98.20;;;;;;5030345;28;20491;-84
2023/08/06 06:26:06;;;;;;;1.50;0.90;;;16.80;98.20;;;;;;5016713;28;20507;-84
2023/08/06 06:28:33;;;;;;;1.50;0.90;;;16.80;98.20;;;;;;5030420;28;20487;-84
2023/08/06 06:31:03;;;;;;;1.50;0.90;;;16.80;98.20;;;;;;5011654;28;20460;-85
2023/08/06 06:33:30;;;;;;;1.53;1.00;;;16.90;98.20;;;;;;5031228;28;21024;-83
2023/08/06 06:35:57;;;;;;;1.53;1.00;;;16.90;98.20;;;;;;5020135;28;20493;-82
2023/08/06 06:38:23;;;;;;;1.50;1.00;;;17.00;98.20;;;;;;5028204;28;20470;-83
2023/08/06 06:40:55;;;;;;;1.50;0.90;;;17.00;98.20;;;;;;5023575;28;20490;-82
2023/08/06 06:43:22;;;;;;;1.53;0.90;;;17.00;98.20;;;;;;5030179;28;20478;-82
2023/08/06 06:45:53;;;;;;;1.53;0.90;;;17.10;98.20;;;;;;5021176;28;20462;-82
2023/08/06 06:48:21;;;;;;;1.50;0.90;;;17.10;98.20;;;;;;5031223;28;20470;-81
2023/08/06 06:50:49;;;;;;;1.50;0.90;;;17.10;98.20;;;;;;5025149;28;20843;-82
2023/08/06 06:53:15;;;;;;;1.57;0.90;;;17.10;98.20;;;;;;5030884;28;21181;-82
2023/08/06 06:55:43;;;;;;;1.53;0.90;;;17.20;98.20;;;;;;5033313;28;20490;-82
2023/08/06 06:58:09;;;;;;;1.50;0.90;;;17.20;98.20;;;;;;5024695;28;20475;-82
2023/08/06 07:00:37;;;;;;;1.50;0.90;;;17.20;98.20;;;;;;5034991;28;20551;-82
2023/08/06 07:03:04;;;;;;;1.50;1.00;;;17.30;98.20;;;;;;5019253;28;20489;-81
2023/08/06 07:05:32;;;;;;;1.60;0.90;;;17.40;98.20;;;;;;5033334;28;20474;-82
2023/08/06 07:07:59;;;;;;;1.53;0.90;;;17.40;98.20;;;;;;5022617;28;20471;-82
2023/08/06 07:10:26;;;;;;;1.53;0.93;;;17.50;98.20;;;;;;5033478;28;20458;-82
2023/08/06 07:12:54;;;;;;;1.57;0.90;;;17.60;98.20;;;;;;5015492;28;20586;-82
2023/08/06 07:15:21;;;;;;;1.57;1.00;;;17.60;98.20;;;;;;5032644;28;20479;-82
2023/08/06 07:17:48;;;;;;;1.50;0.90;;;17.60;98.20;;;;;;5020271;28;20575;-82
2023/08/06 07:20:14;;;;;;;1.50;0.90;;;17.70;98.20;;;;;;5027153;28;20510;-83
2023/08/06 07:22:43;;;;;;;1.57;0.90;;;17.70;98.20;;;;;;5019742;28;20860;-82
2023/08/06 07:25:10;;;;;;;1.53;0.90;;;17.80;98.20;;;;;;5035975;28;21042;-82
2023/08/06 07:27:37;;;;;;;1.50;0.90;;;17.80;98.20;;;;;;5020412;28;21096;-82
2023/08/06 07:30:05;;;;;;;1.50;0.90;;;17.80;98.20;;;;;;5039259;28;20470;-82
2023/08/06 07:32:39;;;;;;;1.50;0.90;;;17.80;98.20;;;;;;5025200;28;20871;-82
2023/08/06 07:35:12;;;;;;;1.57;0.90;;;17.90;98.20;;;;;;5029121;28;20463;-82
2023/08/06 07:37:49;;;;;;;1.50;0.90;;;18.00;98.20;;;;;;5031709;28;20470;-81
2023/08/06 07:40:16;;;;;;;1.50;0.90;;;18.10;98.20;;;;;;5038045;28;20525;-81
2023/08/06 07:42:43;;;;;;;1.50;0.90;;;18.20;98.20;;;;;;5026367;28;20851;-80
2023/08/06 07:45:10;;;;;;;1.53;0.90;;;18.20;98.20;;;;;;5034939;28;20578;-81
2023/08/06 07:47:37;;;;;;;1.57;0.90;;;18.30;98.20;;;;;;5017555;28;20505;-82
2023/08/06 07:50:05;;;;;;;1.60;0.90;;;18.30;98.20;;;;;;5030479;28;20591;-82
2023/08/06 07:52:31;;;;;;;1.50;0.90;;;18.40;98.20;;;;;;5015878;28;20905;-82
2023/08/06 07:55:01;;;;;;;1.50;0.90;;;18.40;98.20;;;;;;5027813;28;20467;-82
2023/08/06 07:57:28;;;;;;;1.53;0.90;;;18.40;98.20;;;;;;5013240;28;21024;-82
2023/08/06 07:59:55;;;;;;;1.53;1.00;;;18.50;98.20;;;;;;5028266;28;20500;-83
2023/08/06 08:02:21;;;;;;;1.53;0.90;;;18.50;98.20;;;;;;5019706;28;20490;-83
2023/08/06 08:04:48;;;;;;;1.50;0.90;;;18.50;98.20;;;;;;5026869;28;20491;-83
2023/08/06 08:07:15;;;;;;;1.57;0.90;;;18.50;98.20;;;;;;5013665;28;20974;-82
2023/08/06 08:09:42;;;;;;;1.53;1.10;;;18.50;98.20;;;;;;5026329;28;20542;-82
2023/08/06 08:12:10;;;;;;;1.50;0.90;;;18.50;98.20;;;;;;5014534;28;20472;-82
2023/08/06 08:14:37;;;;;;;1.50;0.90;;;18.50;98.20;;;;;;5029216;28;20494;-82
2023/08/06 08:17:10;;;;;;;1.53;0.90;;;18.60;98.20;;;;;;5018233;28;20575;-82
2023/08/06 08:19:51;;;;;;;1.50;0.90;;;18.60;98.20;;;;;;5029969;28;20538;-82
2023/08/06 08:22:56;;;;;;;;;;;;;;;;;;;;;
2023/08/06 08:25:23;;;;;;;1.50;0.90;;;18.60;98.20;;;;;;5026298;28;20816;-82
2023/08/06 08:27:51;;;;;;;1.57;0.90;;;18.60;98.20;;;;;;5016716;28;20535;-82
2023/08/06 08:30:18;;;;;;;1.57;0.90;;;18.60;98.20;;;;;;5031349;28;20464;-82
2023/08/06 08:32:45;;;;;;;1.50;0.90;;;18.50;98.20;;;;;;5028460;28;21017;-83
2023/08/06 08:38:10;;;;;;;1.50;0.90;;;18.40;98.20;;;;;;4969223;28;20995;-82
2023/08/06 08:41:32;;;;;;;1.50;0.90;;;18.40;98.20;;;;;;5033311;28;20479;-83
2023/08/06 08:44:01;;;;;;;1.53;1.00;;;18.50;98.20;;;;;;4999149;28;20479;-83
2023/08/06 08:46:33;;;;;;;1.53;0.90;;;18.60;98.20;;;;;;5023064;28;21067;-83
2023/08/06 08:49:00;;;;;;;1.53;0.90;;;18.70;98.20;;;;;;5030588;28;20461;-83
2023/08/06 08:51:28;;;;;;;1.57;1.00;;;18.80;98.20;;;;;;5020505;28;20507;-84
2023/08/06 08:53:57;;;;;;;1.50;0.90;;;18.90;98.20;;;;;;5020255;28;20485;-83
2023/08/06 08:56:24;;;;;;;1.50;0.90;;;19.00;98.20;;;;;;5018625;28;20620;-83
2023/08/06 08:58:55;;;;;;;1.57;0.90;;;19.20;98.20;;;;;;5027894;28;20452;-83
2023/08/06 09:01:24;;;;;;;1.50;0.90;;;19.40;98.20;;;;;;5023801;28;21399;-83
2023/08/06 09:03:54;;;;;;;1.50;0.90;;;19.70;98.20;;;;;;5027739;28;20506;-82
2023/08/06 09:06:22;;;;;;;1.57;0.90;;;20.00;98.20;;;;;;5019402;28;20493;-83
2023/08/06 09:09:02;;;;;;;1.60;1.00;;;20.50;98.20;;;;;;5029681;28;20470;-82
2023/08/06 09:11:31;;;;;;;1.53;0.90;;;20.80;98.20;;;;;;5009629;28;20493;-83
2023/08/06 09:13:59;;;;;;;1.53;0.90;;;21.10;98.20;;;;;;5025195;28;20487;-83
2023/08/06 09:16:28;;;;;;;1.53;0.80;;;21.30;98.20;;;;;;5016223;28;20510;-82
2023/08/06 09:19:08;;;;;;;1.53;0.90;;;21.40;98.20;;;;;;5025316;28;20490;-82
2023/08/06 09:21:38;;;;;;;1.50;0.90;;;21.50;98.20;;;;;;5019207;28;20521;-80
2023/08/06 09:24:57;;;;;;;1.57;0.90;;;21.60;98.20;;;;;;5036327;28;20542;-85
2023/08/06 09:27:24;;;;;;;1.53;0.90;;;21.70;98.20;;;;;;5016074;28;20529;-81
2023/08/06 09:29:51;;;;;;;1.50;0.90;;;21.70;98.20;;;;;;5027433;28;20459;-82
2023/08/06 09:33:00;;;;;;;1.50;0.90;;;21.70;98.20;;;;;;5016865;28;20478;-81
2023/08/06 09:35:31;;;;;;;1.53;0.90;;;21.70;98.20;;;;;;5026226;28;20464;-80
2023/08/06 09:38:08;;;;;;;1.50;0.90;;;21.70;98.20;;;;;;5018491;28;20503;-81
2023/08/06 09:40:35;;;;;;;1.50;0.90;;;21.60;98.20;;;;;;5027521;28;20554;-81
2023/08/06 09:43:05;;;;;;;1.50;0.90;;;21.60;98.20;;;;;;5010971;28;20521;-80
2023/08/06 09:45:36;;;;;;;1.50;0.80;;;21.80;98.20;;;;;;5031080;28;20470;-80
2023/08/06 09:48:05;;;;;;;1.50;0.90;;;21.80;98.20;;;;;;5019700;28;21003;-78
2023/08/06 09:50:35;;;;;;;1.50;0.90;;;21.40;98.20;;;;;;5025523;28;20463;-81
2023/08/06 09:53:21;;;;;;;1.50;0.90;;;20.90;98.20;;;;;;5012313;28;20492;-86
2023/08/06 09:55:48;;;;;;;1.50;0.90;;;20.50;98.20;;;;;;5019429;28;20625;-83
2023/08/06 09:58:16;;;;;;;1.50;0.90;;;20.00;98.20;;;;;;5030565;28;20529;-84
2023/08/06 10:00:43;;;;;;;1.53;1.00;;;19.60;98.20;;;;;;5025307;28;20509;-83
2023/08/06 10:03:20;;;;;;;1.50;0.90;;;19.30;98.20;;;;;;5015912;28;20545;-82
2023/08/06 10:05:53;;;;;;;1.50;0.90;;;19.00;98.20;;;;;;5031036;28;20474;-83
2023/08/06 10:08:20;;;;;;;1.50;0.90;;;18.80;98.20;;;;;;5000678;28;20815;-82
2023/08/06 10:10:50;;;;;;;1.50;0.90;;;18.70;98.20;;;;;;5035146;28;20555;-84
2023/08/06 10:13:23;;;;;;;1.50;0.90;;;18.50;98.20;;;;;;5000376;28;20752;-83
2023/08/06 10:15:57;;;;;;;1.50;0.90;;;18.40;98.20;;;;;;5020613;28;20923;-84
2023/08/06 10:18:33;;;;;;;1.50;0.90;;;18.30;98.20;;;;;;5029251;28;20492;-85
2023/08/06 10:21:02;;;;;;;1.50;0.90;;;18.20;98.20;;;;;;5013304;28;20459;-85
2023/08/06 10:27:03;;;;;;;1.50;0.90;;;18.10;98.20;;;;;;4972209;28;20499;-86
2023/08/06 10:29:39;;;;;;;1.57;0.90;;;18.00;98.20;;;;;;4987767;28;20469;-86
2023/08/06 10:32:06;;;;;;;1.50;1.00;;;17.90;98.20;;;;;;4972742;28;20481;-87
2023/08/06 10:34:55;;;;;;;1.57;0.90;;;17.70;98.20;;;;;;4992312;28;20483;-84
2023/08/06 10:37:24;;;;;;;1.57;1.00;;;17.60;98.20;;;;;;5019993;28;20479;-84
2023/08/06 10:39:52;;;;;;;1.50;0.90;;;17.60;98.20;;;;;;5025902;28;21056;-85
2023/08/06 10:42:23;;;;;;;1.57;0.90;;;17.60;98.20;;;;;;5015084;28;20495;-84
2023/08/06 10:45:12;;;;;;;1.50;0.90;;;17.50;98.20;;;;;;5026592;28;20987;-85
2023/08/06 10:48:36;;;;;;;1.50;0.90;;;17.40;98.20;;;;;;5021980;28;21022;-87
2023/08/06 10:51:05;;;;;;;1.50;0.90;;;17.30;98.20;;;;;;5013245;28;20855;-85
2023/08/06 10:53:34;;;;;;;1.50;0.90;;;17.20;98.20;;;;;;5025431;28;20486;-85
2023/08/06 10:56:03;;;;;;;1.50;0.90;;;17.10;98.20;;;;;;5016473;28;20455;-88
2023/08/06 10:58:34;;;;;;;1.50;0.90;;;17.00;98.20;;;;;;5026992;28;20464;-85
2023/08/06 11:01:01;;;;;;;1.50;0.90;;;16.90;98.20;;;;;;5017531;28;20969;-85
2023/08/06 11:03:28;;;;;;;1.53;0.90;;;16.90;98.20;;;;;;5027739;28;20575;-83
2023/08/06 11:05:55;;;;;;;1.50;0.90;;;16.90;98.20;;;;;;5017054;28;20925;-83
2023/08/06 11:08:27;;;;;;;1.50;0.90;;;16.90;98.20;;;;;;5027932;28;20530;-84
2023/08/06 11:10:56;;;;;;;1.50;0.90;;;16.90;98.20;;;;;;5015555;28;20930;-84
2023/08/06 11:13:24;;;;;;;1.53;0.97;;;16.70;98.20;;;;;;5014390;28;20580;-84
2023/08/06 11:15:53;;;;;;;1.50;1.00;;;16.70;98.20;;;;;;5012818;28;20478;-88
2023/08/06 11:18:20;;;;;;;1.50;0.90;;;16.70;98.20;;;;;;5023670;28;20487;-83
2023/08/06 11:20:48;;;;;;;1.50;1.00;;;16.70;98.20;;;;;;5021724;28;20463;-85
2023/08/06 11:23:34;;;;;;;1.53;0.90;;;16.60;98.20;;;;;;5031185;28;20494;-86
2023/08/06 11:26:19;;;;;;;1.50;0.90;;;16.60;98.20;;;;;;5019623;28;20558;-85
2023/08/06 11:28:51;;;;;;;1.50;0.90;;;16.50;98.20;;;;;;5030033;28;20459;-87
2023/08/06 11:31:34;;;;;;;1.53;0.90;;;16.50;98.20;;;;;;5010861;28;21048;-87
2023/08/06 11:34:01;;;;;;;1.57;0.90;;;16.50;98.20;;;;;;5020833;28;21535;-86
2023/08/06 11:37:36;;;;;;;1.53;1.00;;;16.50;98.20;;;;;;5022145;28;20552;-86
2023/08/06 11:40:10;;;;;;;1.50;0.90;;;16.50;98.20;;;;;;5012319;28;20466;-85
2023/08/06 11:42:42;;;;;;;1.53;0.90;;;16.50;98.20;;;;;;5021990;28;20515;-83
2023/08/06 11:45:12;;;;;;;1.53;0.97;;;16.50;98.20;;;;;;5037073;28;20471;-83
2023/08/06 11:47:58;;;;;;;1.50;0.90;;;16.60;98.20;;;;;;5026051;28;20486;-85
2023/08/06 11:51:05;;;;;;;1.53;1.00;;;16.60;98.20;;;;;;5036740;28;21010;-83
2023/08/06 11:53:38;;;;;;;1.50;1.00;;;16.60;98.20;;;;;;4992893;28;20498;-84
2023/08/06 11:56:20;;;;;;;1.53;0.90;;;16.70;98.20;;;;;;5012969;28;20452;-86
2023/08/06 11:58:49;;;;;;;1.50;1.00;;;16.70;98.20;;;;;;5032849;28;21053;-84
2023/08/06 12:01:17;;;;;;;1.50;1.00;;;16.80;98.20;;;;;;5018858;28;20527;-84
2023/08/06 12:03:53;;;;;;;1.50;0.90;;;16.80;98.20;;;;;;5025794;28;20608;-84
2023/08/06 12:06:28;;;;;;;1.50;0.90;;;16.90;98.20;;;;;;5015296;28;21093;-85
2023/08/06 12:08:58;;;;;;;1.50;1.00;;;16.90;98.20;;;;;;5033121;28;21016;-84
2023/08/06 12:11:39;;;;;;;1.50;0.90;;;17.00;98.20;;;;;;5019980;28;20471;-84
2023/08/06 12:14:25;;;;;;;1.50;0.90;;;17.00;98.20;;;;;;5028274;28;21425;-83
2023/08/06 12:16:53;;;;;;;1.50;0.90;;;17.10;98.20;;;;;;5017132;28;20525;-84
2023/08/06 12:19:23;;;;;;;1.53;0.90;;;17.20;98.20;;;;;;5027794;28;20472;-84
2023/08/06 12:22:13;;;;;;;1.53;0.90;;;17.30;98.20;;;;;;5018169;28;20484;-83
2023/08/06 12:25:07;;;;;;;1.50;0.90;;;17.40;98.20;;;;;;5031879;28;20490;-82
2023/08/06 12:27:36;;;;;;;1.50;0.90;;;17.40;98.20;;;;;;5018088;28;20507;-83
2023/08/06 12:30:10;;;;;;;1.57;0.90;;;17.40;98.20;;;;;;5026919;28;20545;-83
2023/08/06 12:32:40;;;;;;;1.50;0.90;;;17.40;98.20;;;;;;5018571;28;20486;-81
2023/08/06 12:35:09;;;;;;;1.50;0.90;;;17.40;98.20;;;;;;5027758;28;20459;-82
2023/08/06 12:40:23;;;;;;;1.50;0.90;;;17.30;98.20;;;;;;5015414;28;20462;-82
2023/08/06 12:43:40;;;;;;;1.50;0.90;;;17.30;98.20;;;;;;5017814;28;20597;-83
2023/08/06 12:46:10;;;;;;;1.53;0.90;;;17.30;98.20;;;;;;5007070;28;20454;-83
2023/08/06 12:48:37;;;;;;;1.57;1.00;;;17.30;98.20;;;;;;5025568;28;20466;-83
2023/08/06 12:51:04;;;;;;;1.53;1.00;;;17.30;98.20;;;;;;5014135;28;20467;-83
2023/08/06 12:53:31;;;;;;;1.50;1.00;;;17.30;98.20;;;;;;5028248;28;20471;-81
2023/08/06 12:55:58;;;;;;;1.50;0.90;;;17.30;98.20;;;;;;5020045;28;20483;-81
2023/08/06 12:58:25;;;;;;;1.53;0.90;;;17.30;98.20;;;;;;5028744;28;20517;-82
2023/08/06 13:00:54;;;;;;;1.57;1.00;;;17.30;98.20;;;;;;5017885;28;20461;-81
2023/08/06 13:03:23;;;;;;;1.50;0.90;;;17.30;98.20;;;;;;5025171;28;20988;-81
2023/08/06 13:05:50;;;;;;;1.50;0.90;;;17.40;98.20;;;;;;5019721;28;20926;-82
2023/08/06 13:08:20;;;;;;;1.57;0.90;;;17.40;98.20;;;;;;5027288;28;20564;-81
2023/08/06 13:10:55;;;;;;;1.50;0.90;;;17.40;98.20;;;;;;5028642;28;20509;-82
2023/08/06 13:13:22;;;;;;;1.50;1.00;;;17.50;98.20;;;;;;5032198;28;20657;-81
2023/08/06 13:15:58;;;;;;;2.73;2.53;;;17.60;98.20;;;;;;5018761;28;20966;-81
2023/08/06 13:18:30;;;;;;;1.57;0.90;;;17.60;98.20;;;;;;5031144;28;20458;-82
2023/08/06 13:20:59;;;;;;;1.50;0.90;;;17.60;98.20;;;;;;5016718;28;20462;-80